Time;durP1;ratioP1;P1;durP2;ratioP2;P2;SDS_P1;SDS_P2;PMS_P1;PMS_P2;Temp;Humidity;BMP_temperature;BMP_pressure;BME280_temperature;BME280_humidity;BME280_pressure;Samples;Min_cycle;Max_cycle;Signal;HPM_P1;HPM_P2
2022/01/23 00:02:15;;;;;;;7.22;4.13;;;4.70;99.90;;;;;;5014565;28;20168;-70
2022/01/23 00:04:41;;;;;;;6.35;4.63;;;4.70;99.90;;;;;;5015136;28;20533;-67
2022/01/23 00:07:09;;;;;;;6.55;4.15;;;4.70;99.90;;;;;;5015235;28;20253;-68
2022/01/23 00:09:37;;;;;;;7.90;4.15;;;4.70;99.90;;;;;;5014533;28;20200;-68
2022/01/23 00:12:09;;;;;;;6.82;4.63;;;4.70;99.90;;;;;;5015236;28;20178;-70
2022/01/23 00:17:20;;;;;;;6.97;4.53;;;4.70;99.90;;;;;;5014998;28;20676;-69
2022/01/23 00:19:47;;;;;;;8.90;5.15;;;4.70;99.90;;;;;;5014494;28;20191;-69
2022/01/23 00:22:13;;;;;;;5.93;4.20;;;4.70;99.90;;;;;;5014797;28;20259;-68
2022/01/23 00:32:49;;;;;;;4.60;3.72;;;4.60;99.90;;;;;;5014731;28;20171;-69
2022/01/23 00:35:15;;;;;;;8.73;4.20;;;4.60;99.90;;;;;;5014972;28;20195;-68
2022/01/23 00:37:41;;;;;;;6.40;5.03;;;4.60;99.90;;;;;;5014601;28;20417;-68
2022/01/23 00:40:09;;;;;;;4.40;3.40;;;4.70;99.90;;;;;;5014665;28;20561;-69
2022/01/23 00:42:35;;;;;;;6.88;4.53;;;4.70;99.90;;;;;;5013966;28;20758;-69
2022/01/23 00:45:26;;;;;;;4.30;3.90;;;4.70;99.90;;;;;;5014489;28;20201;-69
2022/01/23 00:47:56;;;;;;;10.20;4.05;;;4.70;99.90;;;;;;5014383;28;20740;-69
2022/01/23 00:50:22;;;;;;;12.00;6.85;;;4.70;99.90;;;;;;5014175;28;20202;-70
2022/01/23 00:52:48;;;;;;;13.70;6.23;;;4.70;99.90;;;;;;5014373;28;20174;-68
2022/01/23 00:55:13;;;;;;;10.40;7.57;;;4.80;99.90;;;;;;5014309;28;20231;-69
2022/01/23 00:57:39;;;;;;;7.63;6.70;;;4.70;99.90;;;;;;5013453;28;20175;-70
2022/01/23 01:00:06;;;;;;;11.83;7.87;;;4.70;99.90;;;;;;5013812;28;20210;-69
2022/01/23 01:02:32;;;;;;;13.90;6.15;;;4.70;99.90;;;;;;5013957;28;20188;-69
2022/01/23 01:04:58;;;;;;;8.77;6.72;;;4.70;99.90;;;;;;5014130;28;20176;-70
2022/01/23 01:07:24;;;;;;;8.33;6.67;;;4.70;99.90;;;;;;5013987;28;20167;-68
2022/01/23 01:09:52;;;;;;;10.00;7.03;;;4.70;99.90;;;;;;5013530;28;20199;-67
2022/01/23 01:12:26;;;;;;;11.45;7.75;;;4.70;99.90;;;;;;5013629;28;20174;-68
2022/01/23 01:31:00;;;;;;;8.38;5.35;;;4.70;99.90;;;;;;5013520;28;20205;-69
2022/01/23 01:36:17;;;;;;;9.23;6.82;;;4.70;99.90;;;;;;5014074;28;20167;-70
2022/01/23 01:38:43;;;;;;;8.68;5.82;;;4.60;99.90;;;;;;5003023;28;20195;-69
2022/01/23 01:41:09;;;;;;;12.77;7.45;;;4.60;99.90;;;;;;5013753;28;20163;-69
2022/01/23 01:43:34;;;;;;;9.40;6.20;;;4.60;99.90;;;;;;5013694;28;20703;-69
2022/01/23 01:46:00;;;;;;;10.30;6.70;;;4.50;99.90;;;;;;5013545;28;20189;-69
2022/01/23 01:48:26;;;;;;;11.07;6.13;;;4.50;99.90;;;;;;5013246;28;20629;-69
2022/01/23 01:50:55;;;;;;;11.77;5.70;;;4.50;99.90;;;;;;5013167;28;20229;-69
2022/01/23 01:53:22;;;;;;;6.60;5.25;;;4.50;99.90;;;;;;5013360;28;20785;-69
2022/01/23 01:55:52;;;;;;;8.75;5.93;;;4.40;99.90;;;;;;5013619;28;20171;-68
2022/01/23 02:01:11;;;;;;;8.45;5.05;;;4.40;99.90;;;;;;5013384;28;20306;-70
2022/01/23 02:09:11;;;;;;;6.75;5.30;;;4.40;99.90;;;;;;5012744;28;20624;-70
2022/01/23 02:14:24;;;;;;;11.43;7.32;;;4.40;99.90;;;;;;5013161;28;20225;-69
2022/01/23 02:22:31;;;;;;;10.32;5.88;;;4.50;99.90;;;;;;5013492;28;20217;-69
2022/01/23 02:55:20;;;;;;;7.53;6.30;;;4.50;99.90;;;;;;5016305;28;20221;-69
2022/01/23 03:00:15;;;;;;;9.30;5.67;;;4.60;99.90;;;;;;5016535;28;20190;-68
2022/01/23 03:02:47;;;;;;;10.88;7.30;;;4.70;99.90;;;;;;5016316;28;20175;-69
2022/01/23 03:05:22;;;;;;;5.93;4.88;;;4.70;99.90;;;;;;5016315;28;20226;-69
2022/01/23 03:07:56;;;;;;;10.38;6.95;;;4.60;99.90;;;;;;5016118;28;20250;-67
2022/01/23 03:10:26;;;;;;;8.38;5.13;;;4.50;99.90;;;;;;5015520;28;20293;-69
2022/01/23 03:31:57;;;;;;;9.25;7.50;;;4.40;99.90;;;;;;5015931;28;20175;-69
2022/01/23 03:34:25;;;;;;;12.07;7.70;;;4.30;99.90;;;;;;5015716;28;20526;-69
2022/01/23 03:36:51;;;;;;;12.50;7.18;;;4.30;99.90;;;;;;5014773;28;20161;-70
2022/01/23 03:39:18;;;;;;;7.63;6.15;;;4.30;99.90;;;;;;5014806;28;20199;-68
2022/01/23 03:41:44;;;;;;;18.30;7.55;;;4.30;99.90;;;;;;5015417;28;20202;-68
2022/01/23 03:44:11;;;;;;;8.98;6.00;;;4.50;99.90;;;;;;5015323;28;20264;-69
2022/01/23 03:49:34;;;;;;;8.63;7.50;;;4.40;99.90;;;;;;5014606;28;20683;-68
2022/01/23 03:52:02;;;;;;;12.70;6.03;;;4.40;99.90;;;;;;5015252;28;20163;-70
2022/01/23 03:54:28;;;;;;;8.35;5.30;;;4.50;99.90;;;;;;5015294;28;20184;-69
2022/01/23 03:56:55;;;;;;;6.83;6.00;;;4.40;99.90;;;;;;5015306;28;20171;-68
2022/01/23 03:59:21;;;;;;;11.10;8.18;;;4.40;99.90;;;;;;5014622;28;20436;-68
2022/01/23 04:01:47;;;;;;;11.00;7.57;;;4.40;99.90;;;;;;5015237;28;20175;-68
2022/01/23 04:06:57;;;;;;;10.80;5.82;;;4.30;99.90;;;;;;5015010;28;20249;-69
2022/01/23 04:09:22;;;;;;;8.90;6.07;;;4.30;99.90;;;;;;5014099;28;20637;-68
2022/01/23 04:11:49;;;;;;;7.80;5.97;;;4.30;99.90;;;;;;5015042;28;20195;-67
2022/01/23 04:14:16;;;;;;;15.35;5.53;;;4.30;99.90;;;;;;5015038;28;20152;-68
2022/01/23 04:19:43;;;;;;;11.18;7.20;;;4.30;99.90;;;;;;5014429;28;20194;-70
2022/01/23 04:33:17;;;;;;;14.35;8.02;;;4.50;99.90;;;;;;5014882;28;20667;-68
2022/01/23 04:59:53;;;;;;;6.35;4.32;;;4.40;99.90;;;;;;5013954;28;20249;-67
2022/01/23 05:04:54;;;;;;;6.35;4.95;;;4.40;99.90;;;;;;5014239;28;20228;-68
2022/01/23 05:07:25;;;;;;;6.67;4.63;;;4.30;99.90;;;;;;5013865;28;20175;-69
2022/01/23 05:09:51;;;;;;;6.90;5.07;;;4.40;99.90;;;;;;5013322;28;20210;-70
2022/01/23 05:12:16;;;;;;;10.10;6.80;;;4.30;99.90;;;;;;5014093;28;20179;-68
2022/01/23 05:14:45;;;;;;;11.27;6.10;;;4.30;99.90;;;;;;5014351;28;20167;-68
2022/01/23 05:17:14;;;;;;;7.32;6.38;;;4.20;99.90;;;;;;5013844;28;20171;-69
2022/01/23 05:19:41;;;;;;;7.90;5.45;;;4.20;99.90;;;;;;5013411;28;20191;-68
2022/01/23 05:22:20;;;;;;;8.15;5.40;;;4.20;99.90;;;;;;5013615;28;20187;-68
2022/01/23 05:27:29;;;;;;;9.20;4.10;;;4.20;99.90;;;;;;5013382;28;20253;-68
2022/01/23 05:29:57;;;;;;;8.07;6.20;;;4.20;99.90;;;;;;5013462;28;20202;-69
2022/01/23 05:32:25;;;;;;;9.32;5.45;;;4.20;99.90;;;;;;5013721;28;20206;-68
2022/01/23 05:34:50;;;;;;;9.82;7.10;;;4.20;99.90;;;;;;5013751;28;20221;-69
2022/01/23 05:37:16;;;;;;;11.73;6.87;;;4.30;99.90;;;;;;5013420;28;20179;-69
2022/01/23 05:39:42;;;;;;;9.37;6.77;;;4.30;99.90;;;;;;5013077;28;20520;-69
2022/01/23 05:42:09;;;;;;;9.77;6.90;;;4.30;99.90;;;;;;5013552;28;20180;-69
2022/01/23 05:44:37;;;;;;;8.90;6.07;;;4.30;99.90;;;;;;5013227;28;20273;-69
2022/01/23 05:47:04;;;;;;;9.30;6.38;;;4.30;99.90;;;;;;5013710;28;20257;-68
2022/01/23 05:49:29;;;;;;;11.98;8.32;;;4.20;99.90;;;;;;5012958;28;20218;-70
2022/01/23 05:51:55;;;;;;;10.43;5.67;;;4.20;99.90;;;;;;5013568;28;20585;-69
2022/01/23 05:54:21;;;;;;;12.30;6.95;;;4.30;99.90;;;;;;5013573;28;20170;-70
2022/01/23 05:56:47;;;;;;;8.83;6.03;;;4.30;99.90;;;;;;5014019;28;20171;-67
2022/01/23 05:59:13;;;;;;;9.43;5.83;;;4.30;99.90;;;;;;5012926;28;20201;-67
2022/01/23 06:01:38;;;;;;;9.97;5.70;;;4.30;99.90;;;;;;5017177;28;20182;-67
2022/01/23 06:04:04;;;;;;;10.87;6.40;;;4.30;99.90;;;;;;5017351;28;20572;-68
2022/01/23 06:06:30;;;;;;;12.47;6.80;;;4.30;99.90;;;;;;5017362;28;20649;-67
2022/01/23 06:08:56;;;;;;;8.80;6.23;;;4.30;99.90;;;;;;5016717;28;20479;-67
2022/01/23 06:11:21;;;;;;;11.87;7.10;;;4.30;99.90;;;;;;5017458;28;20175;-69
2022/01/23 06:13:47;;;;;;;12.33;8.23;;;4.30;99.90;;;;;;5016973;28;20422;-67
2022/01/23 06:16:13;;;;;;;10.23;8.03;;;4.30;99.90;;;;;;5017107;28;20171;-68
2022/01/23 06:18:40;;;;;;;9.60;7.20;;;4.30;99.90;;;;;;5016458;28;20190;-68
2022/01/23 06:21:07;;;;;;;10.35;5.25;;;4.20;99.90;;;;;;5017097;28;20215;-68
2022/01/23 06:23:33;;;;;;;9.07;6.95;;;4.30;99.90;;;;;;5017071;28;20264;-69
2022/01/23 06:25:59;;;;;;;9.33;6.57;;;4.30;99.90;;;;;;5016889;28;20179;-69
2022/01/23 06:28:43;;;;;;;8.87;5.40;;;4.30;99.90;;;;;;5016460;28;20938;-69
2022/01/23 06:31:09;;;;;;;13.20;7.10;;;4.40;99.90;;;;;;5016614;28;20513;-69
2022/01/23 06:33:35;;;;;;;7.80;6.37;;;4.40;99.90;;;;;;5016630;28;20581;-69
2022/01/23 06:36:02;;;;;;;18.80;7.80;;;4.40;99.90;;;;;;5016617;28;20163;-69
2022/01/23 06:38:28;;;;;;;12.82;6.95;;;4.40;99.90;;;;;;5016390;28;20175;-67
2022/01/23 06:40:53;;;;;;;9.35;6.65;;;4.40;99.90;;;;;;5016976;28;20566;-67
2022/01/23 06:43:19;;;;;;;9.60;6.37;;;4.30;99.90;;;;;;5016596;28;20182;-70
2022/01/23 06:45:45;;;;;;;14.53;5.80;;;4.40;99.90;;;;;;5016646;28;20175;-68
2022/01/23 06:48:10;;;;;;;8.47;6.10;;;4.40;99.90;;;;;;5015821;28;20215;-69
2022/01/23 06:50:36;;;;;;;7.03;4.90;;;4.40;99.90;;;;;;5016249;28;20213;-68
2022/01/23 06:53:01;;;;;;;8.10;6.23;;;4.40;99.90;;;;;;5016671;28;20170;-69
2022/01/23 06:55:27;;;;;;;13.93;6.53;;;4.40;99.90;;;;;;5016553;28;20171;-69
2022/01/23 06:57:53;;;;;;;8.77;5.47;;;4.30;99.90;;;;;;5016126;28;20167;-69
2022/01/23 07:00:19;;;;;;;11.50;7.47;;;4.30;99.90;;;;;;5016292;28;20198;-70
2022/01/23 07:02:44;;;;;;;8.70;6.10;;;4.30;99.90;;;;;;5015874;28;20171;-68
2022/01/23 07:05:10;;;;;;;11.00;7.03;;;4.30;99.90;;;;;;5016277;28;20413;-69
2022/01/23 07:07:35;;;;;;;10.83;6.73;;;4.30;99.90;;;;;;5015663;28;20533;-69
2022/01/23 07:10:01;;;;;;;9.87;8.77;;;4.30;99.90;;;;;;5015838;28;20318;-68
2022/01/23 07:12:27;;;;;;;13.20;7.47;;;4.30;99.90;;;;;;5014713;28;20174;-68
2022/01/23 07:14:52;;;;;;;11.40;6.80;;;4.40;99.90;;;;;;5016056;28;20174;-69
2022/01/23 07:17:18;;;;;;;7.77;6.13;;;4.40;99.90;;;;;;5015931;28;20519;-69
2022/01/23 07:19:44;;;;;;;9.73;6.83;;;4.40;99.90;;;;;;5015530;28;20617;-67
2022/01/23 07:22:09;;;;;;;7.70;5.53;;;4.40;99.90;;;;;;5016022;28;20649;-68
2022/01/23 07:24:35;;;;;;;11.97;9.00;;;4.50;99.90;;;;;;5015900;28;20182;-68
2022/01/23 07:27:07;;;;;;;10.83;6.63;;;4.50;99.90;;;;;;5015509;28;20237;-68
2022/01/23 07:29:32;;;;;;;10.65;6.32;;;4.50;99.90;;;;;;5015368;28;20242;-69
2022/01/23 07:32:00;;;;;;;13.87;6.40;;;4.50;99.90;;;;;;5014405;28;20633;-68
2022/01/23 07:34:26;;;;;;;11.98;7.15;;;4.50;99.90;;;;;;5015745;28;20644;-70
2022/01/23 07:36:52;;;;;;;8.40;6.63;;;4.60;99.90;;;;;;5015635;28;20179;-67
2022/01/23 07:39:18;;;;;;;9.37;7.10;;;4.60;99.90;;;;;;5015085;28;20199;-69
2022/01/23 07:41:43;;;;;;;11.90;7.30;;;4.70;99.90;;;;;;5015428;28;20474;-68
2022/01/23 07:44:09;;;;;;;14.07;7.40;;;4.70;99.90;;;;;;5015430;28;20309;-69
2022/01/23 07:46:35;;;;;;;15.13;6.40;;;4.70;99.90;;;;;;5015500;28;20183;-70
2022/01/23 07:49:01;;;;;;;9.97;6.90;;;4.70;99.90;;;;;;5014996;28;20248;-70
2022/01/23 07:51:26;;;;;;;7.40;6.30;;;4.70;99.90;;;;;;5015359;28;20531;-68
2022/01/23 07:53:52;;;;;;;9.80;7.90;;;4.70;99.90;;;;;;5015562;28;20236;-70
2022/01/23 07:56:18;;;;;;;7.90;5.37;;;4.70;99.90;;;;;;5015346;28;20233;-69
2022/01/23 07:58:44;;;;;;;11.80;8.87;;;4.70;99.90;;;;;;5014734;28;20798;-68
2022/01/23 08:01:09;;;;;;;9.37;7.67;;;4.70;99.90;;;;;;5013872;28;20430;-68
2022/01/23 08:03:35;;;;;;;15.47;8.10;;;4.80;99.90;;;;;;5015384;28;20597;-67
2022/01/23 08:06:01;;;;;;;8.50;6.30;;;4.80;99.90;;;;;;5015527;28;20211;-67
2022/01/23 08:08:27;;;;;;;12.77;7.57;;;4.70;99.90;;;;;;5017408;28;20210;-67
2022/01/23 08:10:53;;;;;;;10.43;7.30;;;4.80;99.90;;;;;;5020134;28;20199;-67
2022/01/23 08:13:19;;;;;;;9.63;6.60;;;4.80;99.90;;;;;;5018813;28;20454;-68
2022/01/23 08:15:45;;;;;;;11.97;7.30;;;4.80;99.90;;;;;;5017695;28;20630;-67
2022/01/23 08:18:10;;;;;;;7.17;5.83;;;4.80;99.90;;;;;;5017702;28;20384;-68
2022/01/23 08:20:36;;;;;;;13.73;9.00;;;4.90;99.90;;;;;;5016897;28;20250;-68
2022/01/23 08:23:03;;;;;;;9.40;7.07;;;4.90;99.90;;;;;;5013620;28;20650;-68
2022/01/23 08:25:30;;;;;;;10.00;6.55;;;4.90;99.90;;;;;;5016967;28;20788;-69
2022/01/23 08:27:56;;;;;;;12.88;8.13;;;5.00;99.90;;;;;;5016263;28;20179;-67
2022/01/23 08:30:22;;;;;;;13.60;6.18;;;5.00;99.90;;;;;;5017248;28;20215;-72
2022/01/23 08:32:48;;;;;;;12.13;7.82;;;5.00;99.90;;;;;;5016489;28;20230;-72
2022/01/23 08:35:14;;;;;;;9.17;6.87;;;5.00;99.90;;;;;;5032577;28;20180;-69
2022/01/23 08:37:41;;;;;;;14.93;7.20;;;5.00;99.90;;;;;;5014923;28;20663;-69
2022/01/23 08:40:17;;;;;;;15.05;7.32;;;5.10;99.90;;;;;;5014422;28;20844;-65
2022/01/23 08:42:43;;;;;;;9.60;8.00;;;5.10;99.90;;;;;;5014001;28;20574;-65
2022/01/23 08:45:09;;;;;;;9.70;6.40;;;5.10;99.90;;;;;;5014882;28;20172;-67
2022/01/23 08:47:35;;;;;;;24.47;9.20;;;5.20;99.90;;;;;;5014686;28;20759;-68
2022/01/23 08:50:02;;;;;;;13.00;7.43;;;5.20;99.90;;;;;;5013698;28;20872;-67
2022/01/23 08:52:28;;;;;;;10.80;6.22;;;5.20;99.90;;;;;;5013890;28;20396;-67
2022/01/23 08:54:56;;;;;;;15.60;7.17;;;5.30;99.90;;;;;;5014022;28;20510;-68
2022/01/23 08:57:24;;;;;;;11.63;7.63;;;5.40;99.90;;;;;;5014069;28;20170;-66
2022/01/23 08:59:50;;;;;;;18.08;8.25;;;5.40;99.90;;;;;;5013417;28;20196;-68
2022/01/23 09:02:18;;;;;;;12.55;7.30;;;5.50;99.90;;;;;;5013693;28;20304;-66
2022/01/23 09:04:45;;;;;;;8.88;7.80;;;5.50;99.90;;;;;;5013347;28;20212;-64
2022/01/23 09:07:11;;;;;;;14.63;9.38;;;5.60;99.90;;;;;;5013976;28;20250;-65
2022/01/23 09:09:39;;;;;;;12.38;10.88;;;5.70;99.90;;;;;;5011949;28;20280;-66
2022/01/23 09:12:28;;;;;;;12.27;8.30;;;5.70;99.90;;;;;;5014247;28;20232;-68
2022/01/23 09:14:54;;;;;;;12.60;8.25;;;5.80;99.90;;;;;;5013779;28;20169;-67
2022/01/23 09:17:20;;;;;;;10.52;8.00;;;5.90;99.90;;;;;;5013621;28;20518;-68
2022/01/23 09:19:47;;;;;;;12.07;6.13;;;5.90;99.90;;;;;;5013093;28;20252;-68
2022/01/23 09:22:14;;;;;;;9.45;6.85;;;5.90;99.90;;;;;;5013372;28;20528;-68
2022/01/23 09:24:40;;;;;;;14.55;8.50;;;6.00;99.90;;;;;;5013226;28;20197;-67
2022/01/23 09:27:07;;;;;;;9.70;8.17;;;6.10;99.90;;;;;;5013274;28;20178;-67
2022/01/23 09:29:42;;;;;;;15.63;10.23;;;6.20;99.90;;;;;;5012971;28;21020;-67
2022/01/23 09:32:14;;;;;;;12.30;8.27;;;6.20;99.90;;;;;;5011881;28;20177;-66
2022/01/23 09:34:42;;;;;;;11.77;7.38;;;6.10;99.90;;;;;;5012753;28;20185;-68
2022/01/23 09:37:10;;;;;;;9.80;7.97;;;6.00;99.90;;;;;;4995898;28;20198;-68
2022/01/23 09:39:38;;;;;;;12.50;9.52;;;6.00;99.90;;;;;;5012990;28;20198;-68
2022/01/23 09:42:04;;;;;;;16.02;9.60;;;6.00;99.90;;;;;;5013397;28;20270;-68
2022/01/23 09:44:34;;;;;;;9.63;8.30;;;6.10;99.90;;;;;;5012826;28;20217;-69
2022/01/23 09:47:00;;;;;;;13.25;9.18;;;6.10;99.90;;;;;;5013444;28;20808;-70
2022/01/23 09:49:29;;;;;;;13.45;8.20;;;6.20;99.90;;;;;;5012820;28;20335;-68
2022/01/23 09:51:59;;;;;;;11.40;8.80;;;6.20;99.90;;;;;;5013518;28;20166;-69
2022/01/23 09:54:24;;;;;;;11.57;7.22;;;6.20;99.90;;;;;;5013275;28;20166;-69
2022/01/23 09:56:50;;;;;;;12.40;8.27;;;6.20;99.90;;;;;;5013305;28;20176;-67
2022/01/23 09:59:16;;;;;;;17.02;9.02;;;6.20;99.90;;;;;;5012776;28;20266;-68
2022/01/23 10:01:45;;;;;;;9.97;7.37;;;6.30;99.90;;;;;;5012964;28;20190;-68
2022/01/23 10:04:12;;;;;;;11.30;7.25;;;6.40;99.90;;;;;;5013041;28;20529;-68
2022/01/23 10:06:37;;;;;;;12.75;8.30;;;6.50;99.90;;;;;;5013554;28;20181;-66
2022/01/23 10:09:08;;;;;;;10.47;7.73;;;6.60;99.90;;;;;;5012769;28;20201;-69
2022/01/23 10:11:39;;;;;;;9.23;7.32;;;6.60;99.90;;;;;;5013053;28;20537;-72
2022/01/23 10:14:05;;;;;;;6.53;5.82;;;6.70;99.90;;;;;;5012675;28;20529;-69
2022/01/23 10:16:32;;;;;;;12.63;8.65;;;6.70;99.90;;;;;;5013418;28;20171;-71
2022/01/23 10:18:58;;;;;;;11.77;7.57;;;6.70;99.90;;;;;;5010528;28;20202;-72
2022/01/23 10:21:25;;;;;;;9.85;7.80;;;6.70;99.90;;;;;;5010096;28;20537;-77
2022/01/23 10:23:52;;;;;;;9.23;6.20;;;6.80;99.90;;;;;;5005860;28;20182;-77
2022/01/23 10:26:38;;;;;;;8.80;6.20;;;6.90;99.90;;;;;;5007716;28;20212;-79
2022/01/23 10:29:11;;;;;;;7.25;5.75;;;6.90;99.90;;;;;;5012179;28;20190;-75
2022/01/23 10:31:59;;;;;;;9.82;5.55;;;6.90;99.90;;;;;;5012830;28;20256;-71
2022/01/23 10:34:44;;;;;;;7.45;5.30;;;6.90;99.90;;;;;;5009249;28;20212;-73
2022/01/23 10:37:11;;;;;;;9.13;5.50;;;7.00;99.90;;;;;;5011560;28;20723;-73
2022/01/23 10:39:47;;;;;;;7.05;5.50;;;7.10;99.90;;;;;;5012250;28;20241;-74
2022/01/23 10:46:38;;;;;;;4.88;4.38;;;7.10;99.90;;;;;;5006925;28;20539;-68
2022/01/23 10:51:12;;;;;;;4.50;3.35;;;7.30;99.90;;;;;;5015588;28;20790;-71
2022/01/23 10:54:03;;;;;;;5.07;4.57;;;7.40;99.90;;;;;;5012436;28;20181;-70
2022/01/23 10:56:31;;;;;;;6.15;4.80;;;7.30;99.90;;;;;;5013691;28;20525;-71
2022/01/23 10:59:06;;;;;;;6.60;3.83;;;7.30;99.90;;;;;;5015972;28;20253;-71
2022/01/23 11:01:32;;;;;;;5.13;4.35;;;7.20;99.90;;;;;;5014789;28;20193;-70
2022/01/23 11:04:12;;;;;;;5.75;3.80;;;7.20;99.90;;;;;;5015817;28;20186;-72
2022/01/23 11:06:56;;;;;;;5.30;4.55;;;7.30;99.90;;;;;;5005967;28;20251;-72
2022/01/23 11:09:37;;;;;;;5.20;4.78;;;7.40;99.90;;;;;;5014661;28;20213;-72
2022/01/23 11:12:23;;;;;;;8.40;6.85;;;7.50;99.90;;;;;;5014629;28;20641;-70
2022/01/23 11:17:54;;;;;;;8.63;5.18;;;7.60;99.90;;;;;;5015082;28;20240;-69
2022/01/23 11:20:51;;;;;;;6.35;5.38;;;7.60;99.90;;;;;;5015795;28;20248;-70
2022/01/23 11:23:24;;;;;;;7.05;5.55;;;7.60;99.90;;;;;;4984592;28;20209;-71
2022/01/23 11:25:55;;;;;;;6.45;5.45;;;7.60;99.90;;;;;;5010787;28;20214;-72
2022/01/23 11:28:43;;;;;;;7.07;6.13;;;7.70;99.90;;;;;;5015367;28;20676;-70
2022/01/23 11:31:18;;;;;;;6.80;5.32;;;7.80;99.90;;;;;;5013444;28;20211;-71
2022/01/23 11:33:49;;;;;;;9.25;5.93;;;7.80;99.90;;;;;;5014901;28;20903;-70
2022/01/23 11:36:17;;;;;;;9.95;6.35;;;7.90;99.90;;;;;;5015131;28;20167;-71
2022/01/23 11:38:46;;;;;;;9.85;6.38;;;7.80;99.90;;;;;;5015051;28;20221;-71
2022/01/23 11:55:33;;;;;;;6.68;5.93;;;8.20;99.90;;;;;;5005208;28;20182;-71
2022/01/23 11:57:59;;;;;;;9.70;6.65;;;8.10;99.90;;;;;;4997418;28;20175;-71
2022/01/23 12:00:29;;;;;;;11.68;6.35;;;8.00;99.90;;;;;;4995377;28;20642;-71
2022/01/23 12:03:19;;;;;;;10.18;6.18;;;8.00;99.90;;;;;;4995750;28;20183;-71
2022/01/23 12:05:46;;;;;;;9.60;6.30;;;7.90;99.90;;;;;;4995379;28;20665;-70
2022/01/23 12:08:29;;;;;;;10.15;6.47;;;7.80;99.90;;;;;;4993687;28;20180;-71
2022/01/23 12:17:01;;;;;;;9.13;4.90;;;7.90;99.90;;;;;;5006648;28;20179;-72
2022/01/23 12:19:29;;;;;;;5.20;3.67;;;8.10;99.90;;;;;;5013850;28;20187;-70
2022/01/23 12:21:58;;;;;;;8.57;5.63;;;8.10;99.90;;;;;;5014954;28;20226;-72
2022/01/23 12:24:25;;;;;;;6.60;3.92;;;8.20;99.90;;;;;;5013964;28;20171;-71
2022/01/23 12:27:12;;;;;;;5.47;3.17;;;8.20;99.90;;;;;;5014476;28;20565;-71
2022/01/23 12:29:39;;;;;;;5.70;4.00;;;8.30;99.90;;;;;;5012494;28;20229;-72
2022/01/23 12:32:30;;;;;;;4.43;4.00;;;8.40;99.90;;;;;;5013157;28;20178;-71
2022/01/23 12:34:58;;;;;;;4.80;3.63;;;8.40;99.90;;;;;;5014339;28;20167;-71
2022/01/23 12:37:26;;;;;;;9.27;5.13;;;8.30;99.90;;;;;;5002496;28;20187;-71
2022/01/23 12:40:29;;;;;;;4.28;3.88;;;8.30;99.90;;;;;;5013875;28;20237;-71
2022/01/23 12:43:15;;;;;;;4.65;3.30;;;8.20;99.90;;;;;;5014440;28;20181;-71
2022/01/23 12:45:49;;;;;;;3.78;3.33;;;8.20;99.90;;;;;;5014236;28;20171;-71
2022/01/23 12:48:30;;;;;;;3.75;3.40;;;8.20;99.90;;;;;;5012443;28;20664;-71
2022/01/23 12:50:58;;;;;;;4.20;3.15;;;8.20;99.90;;;;;;5013939;28;20217;-71
2022/01/23 12:53:35;;;;;;;2.75;2.53;;;8.20;99.90;;;;;;5013974;28;20214;-71
2022/01/23 12:56:08;;;;;;;4.30;2.85;;;8.20;99.90;;;;;;5011219;28;20186;-72
2022/01/23 12:58:34;;;;;;;3.05;2.13;;;8.10;99.90;;;;;;4992946;28;20542;-71
2022/01/23 13:01:03;;;;;;;2.70;1.77;;;8.10;99.90;;;;;;4994316;28;20179;-71
2022/01/23 13:03:29;;;;;;;3.53;3.08;;;8.10;99.90;;;;;;4994304;28;20238;-71
2022/01/23 13:05:55;;;;;;;5.43;2.40;;;8.20;99.90;;;;;;4994375;28;20183;-72
2022/01/23 13:08:29;;;;;;;3.33;2.40;;;8.20;99.90;;;;;;5006806;28;20194;-71
2022/01/23 13:34:58;;;;;;;1.45;1.02;;;7.60;99.90;;;;;;5013530;28;20221;-70
2022/01/23 13:37:27;;;;;;;1.60;1.40;;;7.60;99.90;;;;;;5025631;28;20516;-70
2022/01/23 13:39:57;;;;;;;0.93;0.80;;;7.50;99.90;;;;;;4993615;28;20214;-71
2022/01/23 13:59:58;;;;;;;1.27;1.15;;;7.30;99.90;;;;;;4991660;28;20209;-72
2022/01/23 14:02:45;;;;;;;1.73;1.63;;;7.30;99.90;;;;;;4991660;28;20189;-71
2022/01/23 14:05:18;;;;;;;2.80;1.30;;;7.30;99.90;;;;;;4991731;28;20248;-72
2022/01/23 14:07:52;;;;;;;1.45;1.35;;;7.30;99.90;;;;;;4990935;28;20187;-71
2022/01/23 14:10:29;;;;;;;1.10;1.10;;;7.20;99.90;;;;;;4991162;28;20213;-71
2022/01/23 14:13:07;;;;;;;2.28;1.65;;;7.20;99.90;;;;;;4987518;28;20190;-70
2022/01/23 14:15:32;;;;;;;2.30;2.10;;;7.20;99.90;;;;;;4972226;28;20183;-72
2022/01/23 14:18:04;;;;;;;1.77;1.63;;;7.20;99.90;;;;;;4971801;28;20179;-72
2022/01/23 14:20:35;;;;;;;3.33;2.15;;;7.20;99.90;;;;;;4973339;28;20586;-72
2022/01/23 14:23:17;;;;;;;4.07;2.00;;;7.20;99.90;;;;;;4995368;28;20669;-71
2022/01/23 14:25:45;;;;;;;1.92;1.38;;;7.20;99.90;;;;;;4995437;28;20193;-71
2022/01/23 14:28:15;;;;;;;1.98;1.63;;;7.20;99.90;;;;;;4994306;28;20277;-72
2022/01/23 14:30:55;;;;;;;1.80;1.50;;;7.20;99.90;;;;;;4995637;28;20804;-72
2022/01/23 14:33:27;;;;;;;1.77;1.65;;;7.20;99.90;;;;;;4997466;28;20176;-71
2022/01/23 14:35:54;;;;;;;1.60;1.50;;;7.10;99.90;;;;;;4997091;28;20168;-71
2022/01/23 14:38:27;;;;;;;1.65;1.55;;;7.10;99.90;;;;;;4995336;28;20179;-72
2022/01/23 14:41:07;;;;;;;2.05;1.15;;;7.10;99.90;;;;;;4997027;28;20178;-71
2022/01/23 14:43:39;;;;;;;3.38;2.67;;;7.00;99.90;;;;;;5007230;28;20260;-72
2022/01/23 14:46:10;;;;;;;2.13;1.40;;;6.90;99.90;;;;;;5016385;28;20673;-72
2022/01/23 14:48:48;;;;;;;1.30;1.00;;;6.80;99.90;;;;;;5015841;28;20187;-71
2022/01/23 14:51:23;;;;;;;1.73;1.30;;;6.80;99.90;;;;;;5031615;28;20205;-72
2022/01/23 14:53:51;;;;;;;1.40;1.30;;;6.70;99.90;;;;;;5008072;28;20212;-71
2022/01/23 14:56:17;;;;;;;1.65;1.55;;;6.70;99.90;;;;;;4996590;28;20175;-71
2022/01/23 14:58:43;;;;;;;3.50;2.30;;;6.60;99.90;;;;;;5010249;28;20202;-71
2022/01/23 15:01:11;;;;;;;1.65;1.55;;;6.60;99.90;;;;;;5016564;28;20177;-71
2022/01/23 15:03:39;;;;;;;1.30;1.20;;;6.60;99.90;;;;;;5016075;28;20173;-72
2022/01/23 15:06:05;;;;;;;3.47;1.70;;;6.60;99.90;;;;;;5015750;28;20183;-71
2022/01/23 15:08:31;;;;;;;1.20;1.20;;;6.60;99.90;;;;;;5015514;28;20633;-71
2022/01/23 15:10:59;;;;;;;3.20;1.93;;;6.50;99.90;;;;;;5016041;28;20264;-68
2022/01/23 15:13:26;;;;;;;2.35;1.63;;;6.50;99.90;;;;;;5014280;28;20574;-67
2022/01/23 15:15:54;;;;;;;2.58;1.50;;;6.50;99.90;;;;;;5015878;28;20170;-68
2022/01/23 15:18:20;;;;;;;1.58;1.48;;;6.50;99.90;;;;;;5015420;28;20659;-67
2022/01/23 15:20:47;;;;;;;2.50;1.63;;;6.50;99.90;;;;;;5015448;28;20179;-67
2022/01/23 15:23:14;;;;;;;1.25;1.13;;;6.50;99.90;;;;;;5015554;28;20177;-69
2022/01/23 15:25:41;;;;;;;1.52;1.42;;;6.40;99.90;;;;;;5015321;28;20587;-69
2022/01/23 15:28:08;;;;;;;2.03;1.90;;;6.30;99.90;;;;;;5013644;28;20189;-68
2022/01/23 15:30:36;;;;;;;2.17;1.20;;;6.30;99.90;;;;;;5015432;28;20193;-69
2022/01/23 15:33:03;;;;;;;1.00;1.00;;;6.30;99.90;;;;;;5014206;28;20526;-69
2022/01/23 15:35:30;;;;;;;1.65;1.55;;;6.30;99.90;;;;;;5015246;28;20565;-68
2022/01/23 15:37:56;;;;;;;1.65;1.55;;;6.20;99.90;;;;;;5012521;28;20529;-68
2022/01/23 15:40:23;;;;;;;1.85;1.40;;;6.30;99.90;;;;;;5014396;28;20228;-70
2022/01/23 15:42:53;;;;;;;1.00;1.00;;;6.30;99.90;;;;;;5015275;28;20181;-68
2022/01/23 15:45:20;;;;;;;1.05;1.02;;;6.20;99.90;;;;;;5015252;28;20188;-69
2022/01/23 15:47:48;;;;;;;1.13;0.85;;;6.20;99.90;;;;;;5013456;28;20180;-69
2022/01/23 15:50:15;;;;;;;1.77;1.67;;;6.20;99.90;;;;;;5014862;28;20213;-70
2022/01/23 15:52:42;;;;;;;2.58;2.38;;;6.10;99.90;;;;;;5014791;28;20177;-69
2022/01/23 15:55:10;;;;;;;1.65;1.00;;;6.10;99.90;;;;;;5014267;28;20178;-68
2022/01/23 15:57:36;;;;;;;1.38;1.20;;;6.00;99.90;;;;;;5014486;28;20244;-74
2022/01/23 16:00:05;;;;;;;2.47;1.60;;;6.10;99.90;;;;;;5014639;28;20198;-70
2022/01/23 16:02:30;;;;;;;3.05;1.15;;;6.00;99.90;;;;;;5030265;28;20259;-67
2022/01/23 16:04:57;;;;;;;2.10;2.00;;;6.00;99.90;;;;;;5014210;28;20276;-68
2022/01/23 16:07:23;;;;;;;1.63;1.52;;;6.00;99.90;;;;;;5012362;28;20179;-70
2022/01/23 16:09:49;;;;;;;1.63;1.50;;;5.90;99.90;;;;;;5013958;28;20600;-69
2022/01/23 16:12:17;;;;;;;1.58;1.40;;;5.90;99.90;;;;;;5015164;28;20170;-70
2022/01/23 16:14:44;;;;;;;0.95;0.85;;;5.90;99.90;;;;;;5013280;28;20177;-70
2022/01/23 16:17:10;;;;;;;1.25;1.10;;;5.90;99.90;;;;;;5014806;28;20171;-69
2022/01/23 16:19:36;;;;;;;1.63;1.52;;;5.90;99.90;;;;;;5014396;28;20191;-69
2022/01/23 16:22:03;;;;;;;1.77;1.67;;;5.80;99.90;;;;;;5014959;28;20184;-70
2022/01/23 16:24:29;;;;;;;1.48;1.38;;;5.90;99.90;;;;;;5014619;28;20433;-69
2022/01/23 16:26:57;;;;;;;2.50;1.23;;;5.90;99.90;;;;;;5014850;28;20578;-68
2022/01/23 16:29:25;;;;;;;1.73;1.63;;;5.90;99.90;;;;;;5013737;28;20788;-70
2022/01/23 16:31:53;;;;;;;1.98;1.75;;;5.80;99.90;;;;;;5014678;28;20234;-70
2022/01/23 16:34:21;;;;;;;1.85;1.75;;;5.90;99.90;;;;;;5014734;28;20178;-70
2022/01/23 16:36:47;;;;;;;3.45;1.85;;;5.90;99.90;;;;;;5013249;28;20204;-69
2022/01/23 16:39:14;;;;;;;2.40;1.67;;;5.90;99.90;;;;;;5012983;28;20603;-70
2022/01/23 16:41:43;;;;;;;2.13;1.90;;;5.90;99.90;;;;;;5014502;28;20182;-70